sensor_id;sensor_type;location;lat;lon;timestamp;pressure;altitude;pressure_sealevel;temperature;humidity
21203;BME280;10759;51.982;9.232;2022-08-19T00:01:40;100089.16;;;21.14;95.52
21203;BME280;10759;51.982;9.232;2022-08-19T00:04:10;100078.13;;;20.95;95.64
21203;BME280;10759;51.982;9.232;2022-08-19T00:06:41;100097.91;;;21.18;95.59
21203;BME280;10759;51.982;9.232;2022-08-19T00:09:12;100103.63;;;21.15;95.96
21203;BME280;10759;51.982;9.232;2022-08-19T00:11:43;100098.63;;;20.99;96.58
21203;BME280;10759;51.982;9.232;2022-08-19T00:14:11;100109.22;;;21.13;95.54
21203;BME280;10759;51.982;9.232;2022-08-19T00:16:41;100069.50;;;20.90;95.99
21203;BME280;10759;51.982;9.232;2022-08-19T00:19:11;100102.72;;;21.05;96.21
21203;BME280;10759;51.982;9.232;2022-08-19T00:21:39;100100.38;;;21.00;96.44
21203;BME280;10759;51.982;9.232;2022-08-19T00:24:09;100104.63;;;21.14;96.00
21203;BME280;10759;51.982;9.232;2022-08-19T00:26:37;100103.28;;;21.08;96.26
21203;BME280;10759;51.982;9.232;2022-08-19T00:29:10;100089.34;;;21.01;96.82
21203;BME280;10759;51.982;9.232;2022-08-19T00:31:38;100079.09;;;20.94;96.80
21203;BME280;10759;51.982;9.232;2022-08-19T00:34:07;99996.31;;;20.43;97.48
21203;BME280;10759;51.982;9.232;2022-08-19T00:36:35;100071.94;;;20.93;97.55
21203;BME280;10759;51.982;9.232;2022-08-19T00:39:04;100075.13;;;20.98;97.20
21203;BME280;10759;51.982;9.232;2022-08-19T00:41:32;100073.66;;;20.94;97.21
21203;BME280;10759;51.982;9.232;2022-08-19T00:44:04;100017.38;;;20.62;97.09
21203;BME280;10759;51.982;9.232;2022-08-19T00:46:36;100060.13;;;20.83;98.10
21203;BME280;10759;51.982;9.232;2022-08-19T00:49:09;99982.44;;;20.46;97.92
21203;BME280;10759;51.982;9.232;2022-08-19T00:51:42;100055.41;;;20.85;98.03
21203;BME280;10759;51.982;9.232;2022-08-19T00:54:12;100058.91;;;20.75;99.09
21203;BME280;10759;51.982;9.232;2022-08-19T00:56:41;100044.28;;;20.76;98.72
21203;BME280;10759;51.982;9.232;2022-08-19T00:59:10;100042.50;;;20.66;99.87
21203;BME280;10759;51.982;9.232;2022-08-19T01:01:41;100038.56;;;20.58;99.87
21203;BME280;10759;51.982;9.232;2022-08-19T01:04:11;100023.91;;;20.38;100.00
21203;BME280;10759;51.982;9.232;2022-08-19T01:06:40;100054.41;;;20.53;100.00
21203;BME280;10759;51.982;9.232;2022-08-19T01:09:11;100053.56;;;20.42;100.00
21203;BME280;10759;51.982;9.232;2022-08-19T01:11:41;100040.63;;;20.34;100.00
21203;BME280;10759;51.982;9.232;2022-08-19T01:14:10;100044.00;;;20.47;100.00
21203;BME280;10759;51.982;9.232;2022-08-19T01:16:41;100042.47;;;20.33;100.00
21203;BME280;10759;51.982;9.232;2022-08-19T01:19:18;100032.94;;;20.28;100.00
21203;BME280;10759;51.982;9.232;2022-08-19T01:21:52;99980.03;;;19.88;100.00
21203;BME280;10759;51.982;9.232;2022-08-19T01:24:24;100030.88;;;20.20;100.00
21203;BME280;10759;51.982;9.232;2022-08-19T01:26:52;99940.16;;;19.78;100.00
21203;BME280;10759;51.982;9.232;2022-08-19T01:29:22;100032.56;;;20.32;100.00
21203;BME280;10759;51.982;9.232;2022-08-19T01:31:52;100033.97;;;20.27;100.00
21203;BME280;10759;51.982;9.232;2022-08-19T01:34:20;100026.09;;;20.12;100.00
21203;BME280;10759;51.982;9.232;2022-08-19T01:36:48;100033.88;;;20.06;100.00
21203;BME280;10759;51.982;9.232;2022-08-19T01:39:19;100034.16;;;20.03;100.00
21203;BME280;10759;51.982;9.232;2022-08-19T01:41:50;99990.97;;;19.77;100.00
21203;BME280;10759;51.982;9.232;2022-08-19T01:44:21;100019.75;;;19.80;100.00
21203;BME280;10759;51.982;9.232;2022-08-19T01:46:51;100031.34;;;19.82;100.00
21203;BME280;10759;51.982;9.232;2022-08-19T01:49:22;100027.03;;;19.79;100.00
21203;BME280;10759;51.982;9.232;2022-08-19T01:51:50;99940.59;;;19.28;100.00
21203;BME280;10759;51.982;9.232;2022-08-19T01:54:19;99965.16;;;19.38;100.00
21203;BME280;10759;51.982;9.232;2022-08-19T01:56:59;100010.81;;;19.66;100.00
21203;BME280;10759;51.982;9.232;2022-08-19T01:59:30;100014.78;;;19.73;100.00
21203;BME280;10759;51.982;9.232;2022-08-19T02:01:59;100003.44;;;19.68;100.00
21203;BME280;10759;51.982;9.232;2022-08-19T02:04:27;99990.47;;;19.72;100.00
21203;BME280;10759;51.982;9.232;2022-08-19T02:06:57;100020.06;;;19.98;100.00
21203;BME280;10759;51.982;9.232;2022-08-19T02:09:25;100014.84;;;20.06;100.00
21203;BME280;10759;51.982;9.232;2022-08-19T02:11:54;100012.88;;;20.08;100.00
21203;BME280;10759;51.982;9.232;2022-08-19T02:14:23;99947.31;;;19.79;100.00
21203;BME280;10759;51.982;9.232;2022-08-19T02:16:51;99998.06;;;20.01;100.00
21203;BME280;10759;51.982;9.232;2022-08-19T02:19:19;99991.91;;;19.87;100.00
21203;BME280;10759;51.982;9.232;2022-08-19T02:21:47;100000.41;;;20.05;100.00
21203;BME280;10759;51.982;9.232;2022-08-19T02:24:16;99985.63;;;19.87;100.00
21203;BME280;10759;51.982;9.232;2022-08-19T02:26:44;99961.16;;;19.87;100.00
21203;BME280;10759;51.982;9.232;2022-08-19T02:29:13;99975.13;;;19.82;100.00
21203;BME280;10759;51.982;9.232;2022-08-19T02:31:41;99984.25;;;19.81;100.00
21203;BME280;10759;51.982;9.232;2022-08-19T02:34:09;99953.03;;;19.64;100.00
21203;BME280;10759;51.982;9.232;2022-08-19T02:36:37;99990.69;;;19.80;100.00
21203;BME280;10759;51.982;9.232;2022-08-19T02:39:08;99993.69;;;19.77;100.00
21203;BME280;10759;51.982;9.232;2022-08-19T02:41:35;99995.28;;;19.68;100.00
21203;BME280;10759;51.982;9.232;2022-08-19T02:44:04;99997.72;;;19.49;100.00
21203;BME280;10759;51.982;9.232;2022-08-19T02:46:53;100006.03;;;19.47;100.00
21203;BME280;10759;51.982;9.232;2022-08-19T02:49:22;100001.19;;;19.51;100.00
21203;BME280;10759;51.982;9.232;2022-08-19T02:51:50;99996.88;;;19.48;100.00
21203;BME280;10759;51.982;9.232;2022-08-19T02:54:18;99993.19;;;19.49;100.00
21203;BME280;10759;51.982;9.232;2022-08-19T02:56:46;99962.19;;;19.52;100.00
21203;BME280;10759;51.982;9.232;2022-08-19T02:59:14;99995.16;;;19.70;100.00
21203;BME280;10759;51.982;9.232;2022-08-19T03:01:42;99992.19;;;19.50;100.00
21203;BME280;10759;51.982;9.232;2022-08-19T03:04:14;99992.69;;;19.44;100.00
21203;BME280;10759;51.982;9.232;2022-08-19T03:06:45;99998.50;;;19.40;100.00
21203;BME280;10759;51.982;9.232;2022-08-19T03:09:16;100006.50;;;19.41;100.00
21203;BME280;10759;51.982;9.232;2022-08-19T03:11:45;100007.50;;;19.40;100.00
21203;BME280;10759;51.982;9.232;2022-08-19T03:14:17;100007.03;;;19.35;100.00
21203;BME280;10759;51.982;9.232;2022-08-19T03:16:49;100005.28;;;19.34;100.00
21203;BME280;10759;51.982;9.232;2022-08-19T03:19:19;99990.72;;;19.24;100.00
21203;BME280;10759;51.982;9.232;2022-08-19T03:21:48;99993.78;;;19.19;100.00
21203;BME280;10759;51.982;9.232;2022-08-19T03:24:16;99983.53;;;19.12;100.00
21203;BME280;10759;51.982;9.232;2022-08-19T03:26:47;99973.41;;;19.02;100.00
21203;BME280;10759;51.982;9.232;2022-08-19T03:29:16;100007.38;;;19.19;100.00
21203;BME280;10759;51.982;9.232;2022-08-19T03:31:57;100009.97;;;19.21;100.00
21203;BME280;10759;51.982;9.232;2022-08-19T03:34:29;99861.38;;;18.20;100.00
21203;BME280;10759;51.982;9.232;2022-08-19T03:37:04;100009.47;;;19.04;100.00
21203;BME280;10759;51.982;9.232;2022-08-19T03:39:33;99977.78;;;18.70;100.00
21203;BME280;10759;51.982;9.232;2022-08-19T03:42:01;99997.94;;;18.90;100.00
21203;BME280;10759;51.982;9.232;2022-08-19T03:44:49;100004.38;;;19.00;100.00
21203;BME280;10759;51.982;9.232;2022-08-19T03:47:17;100020.16;;;18.95;100.00
21203;BME280;10759;51.982;9.232;2022-08-19T03:49:47;100008.56;;;18.81;100.00
21203;BME280;10759;51.982;9.232;2022-08-19T03:52:15;100030.38;;;18.80;100.00
21203;BME280;10759;51.982;9.232;2022-08-19T03:54:43;100032.91;;;18.70;100.00
21203;BME280;10759;51.982;9.232;2022-08-19T03:57:11;100030.78;;;18.62;100.00
21203;BME280;10759;51.982;9.232;2022-08-19T03:59:39;100035.59;;;18.59;100.00
21203;BME280;10759;51.982;9.232;2022-08-19T04:02:10;100023.78;;;18.36;100.00
21203;BME280;10759;51.982;9.232;2022-08-19T04:04:40;100030.53;;;18.30;100.00
21203;BME280;10759;51.982;9.232;2022-08-19T04:07:13;100031.53;;;18.29;100.00
21203;BME280;10759;51.982;9.232;2022-08-19T04:09:42;100010.13;;;18.13;100.00
21203;BME280;10759;51.982;9.232;2022-08-19T04:12:10;100045.31;;;18.26;100.00
21203;BME280;10759;51.982;9.232;2022-08-19T04:14:38;100039.25;;;18.22;100.00
21203;BME280;10759;51.982;9.232;2022-08-19T04:17:07;100044.06;;;18.19;100.00
21203;BME280;10759;51.982;9.232;2022-08-19T04:19:35;99942.91;;;17.57;100.00
21203;BME280;10759;51.982;9.232;2022-08-19T04:22:04;100044.97;;;18.31;100.00
21203;BME280;10759;51.982;9.232;2022-08-19T04:24:35;99966.34;;;17.83;100.00
21203;BME280;10759;51.982;9.232;2022-08-19T04:27:04;100041.72;;;18.26;100.00
21203;BME280;10759;51.982;9.232;2022-08-19T04:29:33;100046.06;;;18.28;100.00
21203;BME280;10759;51.982;9.232;2022-08-19T04:32:02;100049.94;;;18.37;100.00
21203;BME280;10759;51.982;9.232;2022-08-19T04:34:36;100038.56;;;18.32;100.00
21203;BME280;10759;51.982;9.232;2022-08-19T04:37:24;100055.53;;;18.22;100.00
21203;BME280;10759;51.982;9.232;2022-08-19T04:40:05;99949.00;;;17.72;100.00
21203;BME280;10759;51.982;9.232;2022-08-19T04:42:51;100046.97;;;18.16;100.00
21203;BME280;10759;51.982;9.232;2022-08-19T04:45:20;100052.22;;;18.06;100.00
21203;BME280;10759;51.982;9.232;2022-08-19T04:47:49;100050.16;;;18.10;100.00
21203;BME280;10759;51.982;9.232;2022-08-19T04:50:25;100049.81;;;18.14;100.00
21203;BME280;10759;51.982;9.232;2022-08-19T04:52:53;99999.16;;;17.91;100.00
21203;BME280;10759;51.982;9.232;2022-08-19T04:55:24;100017.69;;;17.97;100.00
21203;BME280;10759;51.982;9.232;2022-08-19T04:57:53;100057.31;;;18.11;100.00
21203;BME280;10759;51.982;9.232;2022-08-19T05:00:22;100037.28;;;18.00;100.00
21203;BME280;10759;51.982;9.232;2022-08-19T05:02:50;100045.50;;;18.12;100.00
21203;BME280;10759;51.982;9.232;2022-08-19T05:05:19;100051.53;;;18.15;100.00
21203;BME280;10759;51.982;9.232;2022-08-19T05:07:47;100052.28;;;18.17;100.00
21203;BME280;10759;51.982;9.232;2022-08-19T05:10:15;100048.91;;;18.27;100.00
21203;BME280;10759;51.982;9.232;2022-08-19T05:12:45;100035.28;;;18.15;100.00
21203;BME280;10759;51.982;9.232;2022-08-19T05:15:13;100049.09;;;18.23;100.00
21203;BME280;10759;51.982;9.232;2022-08-19T05:17:41;100056.16;;;18.50;100.00
21203;BME280;10759;51.982;9.232;2022-08-19T05:20:29;100061.47;;;18.52;100.00
21203;BME280;10759;51.982;9.232;2022-08-19T05:23:15;100044.78;;;18.45;100.00
21203;BME280;10759;51.982;9.232;2022-08-19T05:25:48;100065.78;;;18.54;100.00
21203;BME280;10759;51.982;9.232;2022-08-19T05:28:18;100046.00;;;18.41;100.00
21203;BME280;10759;51.982;9.232;2022-08-19T05:30:46;100045.63;;;18.45;100.00
21203;BME280;10759;51.982;9.232;2022-08-19T05:33:15;100049.28;;;18.57;100.00
21203;BME280;10759;51.982;9.232;2022-08-19T05:35:43;100017.91;;;18.42;100.00
21203;BME280;10759;51.982;9.232;2022-08-19T05:38:12;100044.19;;;18.77;100.00
21203;BME280;10759;51.982;9.232;2022-08-19T05:40:40;100042.25;;;18.90;100.00
21203;BME280;10759;51.982;9.232;2022-08-19T05:43:09;100038.56;;;19.02;100.00
21203;BME280;10759;51.982;9.232;2022-08-19T05:45:42;100041.31;;;19.14;100.00
21203;BME280;10759;51.982;9.232;2022-08-19T05:48:10;100050.34;;;19.25;100.00
21203;BME280;10759;51.982;9.232;2022-08-19T05:50:40;100042.19;;;19.37;100.00
21203;BME280;10759;51.982;9.232;2022-08-19T05:53:09;100037.25;;;19.19;100.00
21203;BME280;10759;51.982;9.232;2022-08-19T05:55:37;100042.84;;;19.40;100.00
21203;BME280;10759;51.982;9.232;2022-08-19T05:58:06;100019.34;;;19.39;100.00
21203;BME280;10759;51.982;9.232;2022-08-19T06:00:35;100049.63;;;19.57;100.00
21203;BME280;10759;51.982;9.232;2022-08-19T06:03:04;100051.13;;;19.50;100.00
21203;BME280;10759;51.982;9.232;2022-08-19T06:05:39;100026.41;;;19.30;100.00
21203;BME280;10759;51.982;9.232;2022-08-19T06:08:17;100025.75;;;19.27;100.00
21203;BME280;10759;51.982;9.232;2022-08-19T06:10:45;100033.44;;;19.67;100.00
21203;BME280;10759;51.982;9.232;2022-08-19T06:13:13;100043.53;;;20.10;99.35
21203;BME280;10759;51.982;9.232;2022-08-19T06:15:41;100046.97;;;20.23;99.27
21203;BME280;10759;51.982;9.232;2022-08-19T06:18:12;100051.69;;;20.53;92.30
21203;BME280;10759;51.982;9.232;2022-08-19T06:20:41;100053.38;;;20.66;89.04
21203;BME280;10759;51.982;9.232;2022-08-19T06:23:21;100055.19;;;20.76;88.58
21203;BME280;10759;51.982;9.232;2022-08-19T06:25:50;100041.19;;;20.60;88.32
21203;BME280;10759;51.982;9.232;2022-08-19T06:28:17;100052.38;;;20.67;88.74
21203;BME280;10759;51.982;9.232;2022-08-19T06:30:46;100016.25;;;20.32;89.74
21203;BME280;10759;51.982;9.232;2022-08-19T06:33:15;99996.00;;;20.25;90.08
21203;BME280;10759;51.982;9.232;2022-08-19T06:35:44;100049.34;;;20.60;89.70
21203;BME280;10759;51.982;9.232;2022-08-19T06:38:12;100055.03;;;20.57;91.13
21203;BME280;10759;51.982;9.232;2022-08-19T06:40:40;100060.16;;;20.71;88.39
21203;BME280;10759;51.982;9.232;2022-08-19T06:43:13;100060.91;;;20.73;87.78
21203;BME280;10759;51.982;9.232;2022-08-19T06:45:44;100066.84;;;20.67;87.87
21203;BME280;10759;51.982;9.232;2022-08-19T06:48:13;100008.91;;;20.12;88.48
21203;BME280;10759;51.982;9.232;2022-08-19T06:50:45;100060.88;;;20.41;89.16
21203;BME280;10759;51.982;9.232;2022-08-19T06:53:15;100044.66;;;20.07;89.97
21203;BME280;10759;51.982;9.232;2022-08-19T06:55:44;100072.53;;;20.32;90.01
21203;BME280;10759;51.982;9.232;2022-08-19T06:58:12;100078.59;;;20.35;90.81
21203;BME280;10759;51.982;9.232;2022-08-19T07:00:40;100065.78;;;20.47;89.79
21203;BME280;10759;51.982;9.232;2022-08-19T07:03:08;100062.75;;;20.41;90.28
21203;BME280;10759;51.982;9.232;2022-08-19T07:05:40;100064.47;;;20.42;88.38
21203;BME280;10759;51.982;9.232;2022-08-19T07:08:13;100083.47;;;20.53;90.27
21203;BME280;10759;51.982;9.232;2022-08-19T07:10:43;100091.16;;;20.59;89.13
21203;BME280;10759;51.982;9.232;2022-08-19T07:13:12;100099.13;;;20.72;89.09
21203;BME280;10759;51.982;9.232;2022-08-19T07:15:40;100100.72;;;20.74;87.78
21203;BME280;10759;51.982;9.232;2022-08-19T07:18:08;100104.34;;;20.75;88.26
21203;BME280;10759;51.982;9.232;2022-08-19T07:20:37;100105.59;;;20.92;87.28
21203;BME280;10759;51.982;9.232;2022-08-19T07:23:07;100104.06;;;20.99;87.55
21203;BME280;10759;51.982;9.232;2022-08-19T07:25:43;100097.84;;;21.08;85.44
21203;BME280;10759;51.982;9.232;2022-08-19T07:28:18;100128.53;;;21.31;85.19
21203;BME280;10759;51.982;9.232;2022-08-19T07:30:51;100123.81;;;21.33;84.98
21203;BME280;10759;51.982;9.232;2022-08-19T07:33:19;100131.56;;;21.49;83.14
21203;BME280;10759;51.982;9.232;2022-08-19T07:35:47;100141.44;;;21.71;80.54
21203;BME280;10759;51.982;9.232;2022-08-19T07:38:16;100135.03;;;21.82;81.05
21203;BME280;10759;51.982;9.232;2022-08-19T07:40:45;100126.22;;;21.99;81.86
21203;BME280;10759;51.982;9.232;2022-08-19T07:43:13;100113.75;;;22.06;80.22
21203;BME280;10759;51.982;9.232;2022-08-19T07:45:43;100134.22;;;22.22;79.97
21203;BME280;10759;51.982;9.232;2022-08-19T07:48:11;100136.25;;;21.99;79.25
21203;BME280;10759;51.982;9.232;2022-08-19T07:50:40;100142.09;;;21.84;79.08
21203;BME280;10759;51.982;9.232;2022-08-19T07:53:08;100135.63;;;21.85;80.40
21203;BME280;10759;51.982;9.232;2022-08-19T07:55:38;100139.69;;;21.91;81.27
21203;BME280;10759;51.982;9.232;2022-08-19T07:58:13;100147.75;;;22.02;80.61
21203;BME280;10759;51.982;9.232;2022-08-19T08:00:43;100139.44;;;22.04;78.94
21203;BME280;10759;51.982;9.232;2022-08-19T08:03:12;100158.53;;;22.04;79.04
21203;BME280;10759;51.982;9.232;2022-08-19T08:05:41;100163.22;;;21.92;80.00
21203;BME280;10759;51.982;9.232;2022-08-19T08:08:27;100171.50;;;21.81;81.33
21203;BME280;10759;51.982;9.232;2022-08-19T08:11:15;100167.25;;;21.98;79.71
21203;BME280;10759;51.982;9.232;2022-08-19T08:13:48;100151.97;;;21.76;80.66
21203;BME280;10759;51.982;9.232;2022-08-19T08:16:33;100073.09;;;21.63;80.23
21203;BME280;10759;51.982;9.232;2022-08-19T08:19:06;100165.44;;;22.39;79.49
21203;BME280;10759;51.982;9.232;2022-08-19T08:21:51;100149.44;;;21.94;79.71
21203;BME280;10759;51.982;9.232;2022-08-19T08:24:20;100176.72;;;21.94;80.53
21203;BME280;10759;51.982;9.232;2022-08-19T08:26:54;100169.56;;;22.23;79.34
21203;BME280;10759;51.982;9.232;2022-08-19T08:29:25;100169.91;;;22.59;78.78
21203;BME280;10759;51.982;9.232;2022-08-19T08:32:01;100170.38;;;22.74;76.33
21203;BME280;10759;51.982;9.232;2022-08-19T08:34:40;100165.78;;;22.55;75.77
21203;BME280;10759;51.982;9.232;2022-08-19T08:37:09;100140.34;;;22.74;76.75
21203;BME280;10759;51.982;9.232;2022-08-19T08:39:37;100161.63;;;22.70;75.74
21203;BME280;10759;51.982;9.232;2022-08-19T08:42:09;100175.84;;;22.55;75.04
21203;BME280;10759;51.982;9.232;2022-08-19T08:44:52;100176.38;;;22.48;76.74
21203;BME280;10759;51.982;9.232;2022-08-19T08:47:22;100178.28;;;22.58;75.13
21203;BME280;10759;51.982;9.232;2022-08-19T08:49:55;100168.97;;;22.89;75.20
21203;BME280;10759;51.982;9.232;2022-08-19T08:52:28;100114.59;;;22.47;72.80
21203;BME280;10759;51.982;9.232;2022-08-19T08:55:00;100158.16;;;22.59;73.00
21203;BME280;10759;51.982;9.232;2022-08-19T08:57:48;100147.50;;;22.46;73.27
21203;BME280;10759;51.982;9.232;2022-08-19T09:00:25;100177.69;;;22.64;72.82
21203;BME280;10759;51.982;9.232;2022-08-19T09:02:55;100147.75;;;22.33;71.96
21203;BME280;10759;51.982;9.232;2022-08-19T09:05:28;100119.19;;;22.06;71.03
21203;BME280;10759;51.982;9.232;2022-08-19T09:08:18;100179.69;;;22.42;68.48
21203;BME280;10759;51.982;9.232;2022-08-19T09:10:52;100169.47;;;22.54;67.73
21203;BME280;10759;51.982;9.232;2022-08-19T09:13:36;100174.72;;;22.67;68.84
21203;BME280;10759;51.982;9.232;2022-08-19T09:16:14;100159.47;;;22.74;68.70
21203;BME280;10759;51.982;9.232;2022-08-19T09:18:43;100176.75;;;22.84;69.43
21203;BME280;10759;51.982;9.232;2022-08-19T09:21:13;100103.97;;;22.54;70.58
21203;BME280;10759;51.982;9.232;2022-08-19T09:23:42;100168.13;;;23.18;68.57
21203;BME280;10759;51.982;9.232;2022-08-19T09:26:14;100138.78;;;23.20;67.86
21203;BME280;10759;51.982;9.232;2022-08-19T09:28:49;100147.16;;;23.19;66.99
21203;BME280;10759;51.982;9.232;2022-08-19T09:31:23;100151.13;;;23.53;66.82
21203;BME280;10759;51.982;9.232;2022-08-19T09:33:53;100115.41;;;23.55;66.66
21203;BME280;10759;51.982;9.232;2022-08-19T09:36:26;100094.72;;;23.43;64.41
21203;BME280;10759;51.982;9.232;2022-08-19T09:39:01;100144.53;;;24.03;63.49
21203;BME280;10759;51.982;9.232;2022-08-19T09:41:29;100006.22;;;23.53;61.25
21203;BME280;10759;51.982;9.232;2022-08-19T09:43:58;100183.03;;;24.57;60.53
21203;BME280;10759;51.982;9.232;2022-08-19T09:46:28;100112.88;;;24.18;55.51
21203;BME280;10759;51.982;9.232;2022-08-19T09:48:59;100175.44;;;24.41;56.56
21203;BME280;10759;51.982;9.232;2022-08-19T09:51:32;100182.41;;;23.98;60.00
21203;BME280;10759;51.982;9.232;2022-08-19T09:54:02;100179.97;;;24.05;59.40
21203;BME280;10759;51.982;9.232;2022-08-19T09:56:31;100152.91;;;23.92;59.54
21203;BME280;10759;51.982;9.232;2022-08-19T09:59:01;100178.28;;;24.21;60.51
21203;BME280;10759;51.982;9.232;2022-08-19T10:01:32;100150.13;;;24.29;60.94
21203;BME280;10759;51.982;9.232;2022-08-19T10:04:00;100167.31;;;23.94;61.91
21203;BME280;10759;51.982;9.232;2022-08-19T10:06:40;100174.56;;;23.75;62.36
21203;BME280;10759;51.982;9.232;2022-08-19T10:09:14;100124.13;;;23.21;64.15
21203;BME280;10759;51.982;9.232;2022-08-19T10:11:52;100168.25;;;23.55;63.92
21203;BME280;10759;51.982;9.232;2022-08-19T10:14:20;100175.38;;;23.95;63.99
21203;BME280;10759;51.982;9.232;2022-08-19T10:16:51;100158.81;;;23.87;62.91
21203;BME280;10759;51.982;9.232;2022-08-19T10:19:19;100141.31;;;23.70;63.33
21203;BME280;10759;51.982;9.232;2022-08-19T10:21:52;100157.41;;;23.83;64.16
21203;BME280;10759;51.982;9.232;2022-08-19T10:24:26;100140.84;;;23.85;64.05
21203;BME280;10759;51.982;9.232;2022-08-19T10:26:55;100061.41;;;23.29;63.88
21203;BME280;10759;51.982;9.232;2022-08-19T10:29:25;100102.81;;;23.34;64.95
21203;BME280;10759;51.982;9.232;2022-08-19T10:32:01;100149.66;;;23.59;65.34
21203;BME280;10759;51.982;9.232;2022-08-19T10:34:30;100132.09;;;23.62;65.39
21203;BME280;10759;51.982;9.232;2022-08-19T10:36:59;100134.94;;;23.79;62.79
21203;BME280;10759;51.982;9.232;2022-08-19T10:39:29;100125.44;;;23.84;61.53
21203;BME280;10759;51.982;9.232;2022-08-19T10:42:09;100118.63;;;23.97;63.89
21203;BME280;10759;51.982;9.232;2022-08-19T10:44:40;100123.84;;;24.18;61.87
21203;BME280;10759;51.982;9.232;2022-08-19T10:47:10;100121.31;;;24.35;60.68
21203;BME280;10759;51.982;9.232;2022-08-19T10:49:52;100116.53;;;24.47;59.15
21203;BME280;10759;51.982;9.232;2022-08-19T10:52:39;100115.28;;;24.59;59.37
21203;BME280;10759;51.982;9.232;2022-08-19T10:55:15;100108.41;;;24.45;60.00
21203;BME280;10759;51.982;9.232;2022-08-19T10:58:00;100107.28;;;24.66;59.11
21203;BME280;10759;51.982;9.232;2022-08-19T11:00:28;100111.03;;;24.64;60.49
21203;BME280;10759;51.982;9.232;2022-08-19T11:02:59;100107.69;;;24.43;58.06
21203;BME280;10759;51.982;9.232;2022-08-19T11:05:27;100106.44;;;24.37;57.79
21203;BME280;10759;51.982;9.232;2022-08-19T11:08:03;100091.56;;;24.50;59.25
21203;BME280;10759;51.982;9.232;2022-08-19T11:10:50;100050.19;;;24.43;56.34
21203;BME280;10759;51.982;9.232;2022-08-19T11:13:20;100099.38;;;24.80;57.75
21203;BME280;10759;51.982;9.232;2022-08-19T11:15:57;100091.00;;;24.46;55.68
21203;BME280;10759;51.982;9.232;2022-08-19T11:18:34;100064.16;;;24.50;56.20
21203;BME280;10759;51.982;9.232;2022-08-19T11:21:08;100071.44;;;24.77;56.63
21203;BME280;10759;51.982;9.232;2022-08-19T11:23:36;100087.81;;;24.69;53.61
21203;BME280;10759;51.982;9.232;2022-08-19T11:26:05;100058.63;;;24.59;54.24
21203;BME280;10759;51.982;9.232;2022-08-19T11:28:33;100087.94;;;24.85;52.55
21203;BME280;10759;51.982;9.232;2022-08-19T11:31:02;100090.44;;;24.78;54.32
21203;BME280;10759;51.982;9.232;2022-08-19T11:33:30;100091.16;;;24.80;52.76
21203;BME280;10759;51.982;9.232;2022-08-19T11:36:00;100081.06;;;24.99;53.19
21203;BME280;10759;51.982;9.232;2022-08-19T11:38:29;100068.13;;;25.09;52.50
21203;BME280;10759;51.982;9.232;2022-08-19T11:40:58;100081.00;;;25.35;52.92
21203;BME280;10759;51.982;9.232;2022-08-19T11:43:27;100064.50;;;25.26;50.39
21203;BME280;10759;51.982;9.232;2022-08-19T11:46:04;100082.81;;;25.52;51.36
21203;BME280;10759;51.982;9.232;2022-08-19T11:48:33;100087.13;;;25.55;51.60
21203;BME280;10759;51.982;9.232;2022-08-19T11:51:06;100084.31;;;25.38;48.86
21203;BME280;10759;51.982;9.232;2022-08-19T11:53:36;99999.41;;;24.84;50.28
21203;BME280;10759;51.982;9.232;2022-08-19T11:56:05;100014.44;;;24.98;49.92
21203;BME280;10759;51.982;9.232;2022-08-19T11:58:34;100070.72;;;25.11;49.11
21203;BME280;10759;51.982;9.232;2022-08-19T12:01:05;100078.44;;;25.15;47.68
21203;BME280;10759;51.982;9.232;2022-08-19T12:03:33;100064.81;;;25.05;48.98
21203;BME280;10759;51.982;9.232;2022-08-19T12:06:05;100063.72;;;25.16;46.41
21203;BME280;10759;51.982;9.232;2022-08-19T12:08:33;100061.63;;;25.28;47.22
21203;BME280;10759;51.982;9.232;2022-08-19T12:11:01;100074.78;;;25.51;45.75
21203;BME280;10759;51.982;9.232;2022-08-19T12:13:30;100063.88;;;25.33;44.86
21203;BME280;10759;51.982;9.232;2022-08-19T12:15:58;99964.03;;;24.91;43.75
21203;BME280;10759;51.982;9.232;2022-08-19T12:18:26;100026.94;;;25.19;44.63
21203;BME280;10759;51.982;9.232;2022-08-19T12:20:54;100057.28;;;25.52;44.67
21203;BME280;10759;51.982;9.232;2022-08-19T12:23:24;100054.03;;;25.48;45.47
21203;BME280;10759;51.982;9.232;2022-08-19T12:25:52;100049.06;;;25.52;44.71
21203;BME280;10759;51.982;9.232;2022-08-19T12:28:25;100043.44;;;25.53;45.20
21203;BME280;10759;51.982;9.232;2022-08-19T12:30:53;99974.84;;;25.19;46.30
21203;BME280;10759;51.982;9.232;2022-08-19T12:33:22;100032.69;;;25.68;44.15
21203;BME280;10759;51.982;9.232;2022-08-19T12:35:53;100033.06;;;25.73;43.45
21203;BME280;10759;51.982;9.232;2022-08-19T12:38:21;100016.59;;;25.73;42.63
21203;BME280;10759;51.982;9.232;2022-08-19T12:40:52;100052.28;;;25.81;42.99
21203;BME280;10759;51.982;9.232;2022-08-19T12:43:26;100036.63;;;25.65;42.94
21203;BME280;10759;51.982;9.232;2022-08-19T12:45:54;100051.84;;;25.86;43.20
21203;BME280;10759;51.982;9.232;2022-08-19T12:48:23;99989.34;;;25.37;42.75
21203;BME280;10759;51.982;9.232;2022-08-19T12:51:05;100057.56;;;26.01;42.97
21203;BME280;10759;51.982;9.232;2022-08-19T12:53:33;100051.28;;;25.82;42.89
21203;BME280;10759;51.982;9.232;2022-08-19T12:56:07;100043.19;;;25.73;43.60
21203;BME280;10759;51.982;9.232;2022-08-19T12:58:38;100038.97;;;25.86;44.34
21203;BME280;10759;51.982;9.232;2022-08-19T13:01:15;99992.06;;;25.71;43.44
21203;BME280;10759;51.982;9.232;2022-08-19T13:03:49;100017.91;;;25.87;43.68
21203;BME280;10759;51.982;9.232;2022-08-19T13:06:19;100007.78;;;25.87;43.39
21203;BME280;10759;51.982;9.232;2022-08-19T13:08:47;100004.00;;;25.88;43.24